Time;durP1;ratioP1;P1;durP2;ratioP2;P2;SDS_P1;SDS_P2;PMS_P1;PMS_P2;Temp;Humidity;BMP_temperature;BMP_pressure;BME280_temperature;BME280_humidity;BME280_pressure;Samples;Min_cycle;Max_cycle;Signal;HPM_P1;HPM_P2
2020/12/22 00:02:24;;;;;;;9.60;1.60;;;23.50;19.20;;;;;;5049713;28;20086;-64
2020/12/22 00:04:50;;;;;;;7.30;1.65;;;23.40;19.80;;;;;;5033412;28;20078;-63
2020/12/22 00:07:17;;;;;;;5.15;1.55;;;23.30;19.80;;;;;;5051202;28;20071;-63
2020/12/22 00:09:43;;;;;;;9.07;2.05;;;23.20;20.30;;;;;;5031937;28;20154;-62
2020/12/22 00:12:15;;;;;;;12.57;2.58;;;23.10;20.40;;;;;;5033385;28;20094;-64
2020/12/22 00:14:43;;;;;;;19.38;3.60;;;22.90;20.80;;;;;;5051352;28;20124;-63
2020/12/22 00:17:10;;;;;;;8.88;2.65;;;22.80;21.70;;;;;;5050678;28;20066;-62
2020/12/22 00:19:37;;;;;;;9.93;2.20;;;22.70;22.60;;;;;;5052153;28;20028;-63
2020/12/22 00:22:04;;;;;;;13.05;2.70;;;22.50;22.60;;;;;;5050747;28;20400;-63
2020/12/22 00:24:30;;;;;;;24.05;2.55;;;22.40;23.30;;;;;;5033294;28;20035;-62
2020/12/22 00:26:57;;;;;;;20.85;2.45;;;22.20;23.60;;;;;;5050777;28;20169;-62
2020/12/22 00:29:23;;;;;;;18.40;2.72;;;22.00;24.00;;;;;;5069014;28;20105;-63
2020/12/22 00:31:50;;;;;;;16.83;2.85;;;21.80;23.90;;;;;;5071253;28;20086;-64
2020/12/22 00:34:16;;;;;;;17.38;3.05;;;21.70;24.30;;;;;;5071212;28;20067;-64
2020/12/22 00:36:42;;;;;;;18.27;2.95;;;21.60;25.00;;;;;;5053578;28;20071;-63
2020/12/22 00:39:09;;;;;;;;;;;21.40;25.40;;;;;;5069919;28;20065;-62
2020/12/22 00:41:35;;;;;;;15.20;3.30;;;21.20;25.70;;;;;;5070922;28;20616;-63
2020/12/22 00:44:01;;;;;;;;;;;21.10;25.90;;;;;;5071497;28;20080;-63
2020/12/22 00:46:28;;;;;;;27.92;3.92;;;20.90;26.10;;;;;;5071834;28;19954;-64
2020/12/22 00:48:55;;;;;;;29.30;3.60;;;20.70;25.60;;;;;;5070198;28;20076;-65
2020/12/22 00:51:22;;;;;;;;;;;20.60;25.80;;;;;;5070774;28;20128;-66
2020/12/22 00:53:49;;;;;;;26.85;4.25;;;20.40;25.60;;;;;;5070957;28;19959;-66
2020/12/22 00:56:17;;;;;;;25.77;3.83;;;20.20;25.80;;;;;;5053290;28;20503;-65
2020/12/22 00:58:44;;;;;;;26.17;3.92;;;20.10;26.10;;;;;;5071268;28;20079;-65
2020/12/22 01:01:10;;;;;;;;;;;19.90;26.90;;;;;;5071612;28;20460;-65
2020/12/22 01:03:36;;;;;;;21.52;4.80;;;19.80;27.10;;;;;;5070156;28;19955;-65
2020/12/22 01:06:03;;;;;;;;;;;19.60;27.80;;;;;;5072116;28;20147;-66
2020/12/22 01:08:29;;;;;;;29.98;5.78;;;19.50;27.90;;;;;;5071488;28;19963;-66
2020/12/22 01:10:55;;;;;;;;;;;19.40;28.10;;;;;;5072594;28;20154;-66
2020/12/22 01:13:22;;;;;;;34.88;5.65;;;19.20;28.80;;;;;;5070826;28;19985;-66
2020/12/22 01:15:48;;;;;;;30.05;5.50;;;19.10;29.70;;;;;;5070587;28;20064;-67
2020/12/22 01:18:14;;;;;;;;;;;18.90;29.20;;;;;;5071174;28;20479;-66
2020/12/22 01:20:41;;;;;;;40.90;6.00;;;18.80;29.10;;;;;;5084075;28;19959;-66
2020/12/22 01:23:07;;;;;;;;;;;18.70;29.20;;;;;;5053515;28;20107;-67
2020/12/22 01:25:35;;;;;;;44.50;7.47;;;18.50;29.70;;;;;;5067311;28;20022;-66
2020/12/22 01:28:01;;;;;;;49.63;6.82;;;18.40;30.10;;;;;;5063266;28;20120;-66
2020/12/22 01:30:28;;;;;;;43.55;7.35;;;18.40;30.60;;;;;;5051133;28;20569;-66
2020/12/22 01:32:54;;;;;;;;;;;18.20;31.20;;;;;;5051029;28;20102;-66
2020/12/22 01:35:20;;;;;;;37.90;7.75;;;18.10;32.20;;;;;;5050506;28;19995;-67
2020/12/22 01:37:47;;;;;;;;;;;18.00;32.70;;;;;;5053240;28;20174;-66
2020/12/22 01:40:13;;;;;;;50.13;9.25;;;17.90;31.50;;;;;;5031974;28;19963;-66
2020/12/22 01:42:46;;;;;;;38.88;8.40;;;17.80;31.80;;;;;;5049694;28;20083;-62
2020/12/22 01:45:13;;;;;;;54.33;9.50;;;17.80;32.20;;;;;;5049818;28;20096;-62
2020/12/22 01:47:45;;;;;;;57.47;10.18;;;17.70;33.30;;;;;;5052654;28;20081;-63
2020/12/22 01:50:16;;;;;;;51.58;9.98;;;17.60;33.50;;;;;;5049971;28;20516;-63
2020/12/22 01:52:43;;;;;;;51.75;9.80;;;17.60;34.10;;;;;;5049406;28;20573;-62
2020/12/22 01:55:10;;;;;;;54.58;10.15;;;17.50;34.30;;;;;;5049565;28;20529;-62
2020/12/22 01:57:36;;;;;;;54.17;10.60;;;17.50;34.30;;;;;;5050618;28;20428;-60
2020/12/22 02:00:05;;;;;;;50.80;9.32;;;17.40;34.60;;;;;;5050028;28;20068;-62
2020/12/22 02:02:32;;;;;;;53.25;9.45;;;17.40;35.20;;;;;;5049646;28;20549;-61
2020/12/22 02:05:00;;;;;;;51.08;8.35;;;17.30;35.20;;;;;;5050507;28;20148;-61
2020/12/22 02:07:27;;;;;;;51.50;10.10;;;17.30;35.00;;;;;;5047968;28;20472;-61
2020/12/22 02:09:54;;;;;;;58.95;10.18;;;17.20;35.20;;;;;;5048839;28;20547;-60
2020/12/22 02:12:20;;;;;;;57.13;9.00;;;17.10;36.20;;;;;;5049562;28;20099;-59
2020/12/22 02:14:46;;;;;;;;;;;17.00;35.60;;;;;;5048372;28;20072;-63
2020/12/22 02:17:14;;;;;;;47.72;9.68;;;17.00;35.90;;;;;;5050164;28;19956;-60
2020/12/22 02:19:41;;;;;;;44.90;9.75;;;16.90;35.60;;;;;;5031218;28;20080;-61
2020/12/22 02:22:08;;;;;;;38.25;9.10;;;16.90;35.60;;;;;;5048746;28;20068;-62
2020/12/22 02:24:35;;;;;;;53.30;9.57;;;16.80;36.40;;;;;;5049317;28;20076;-63
2020/12/22 02:27:04;;;;;;;45.97;10.85;;;16.70;36.90;;;;;;5049463;28;20170;-64
2020/12/22 02:29:32;;;;;;;46.58;9.52;;;16.70;36.50;;;;;;5066819;28;20155;-63
2020/12/22 02:31:59;;;;;;;41.00;10.00;;;16.60;36.10;;;;;;5034896;28;20138;-63
2020/12/22 02:34:26;;;;;;;47.85;10.57;;;16.60;36.10;;;;;;5054539;28;20428;-63
2020/12/22 02:36:53;;;;;;;46.25;10.10;;;16.50;36.60;;;;;;5053217;28;20155;-64
2020/12/22 02:39:21;;;;;;;40.28;11.02;;;16.50;37.30;;;;;;5035527;28;20068;-63
2020/12/22 02:41:48;;;;;;;39.78;10.60;;;16.40;37.10;;;;;;5053591;28;20084;-64
2020/12/22 02:44:15;;;;;;;49.75;11.82;;;16.30;38.20;;;;;;5035091;28;20075;-64
2020/12/22 02:46:42;;;;;;;42.35;10.77;;;16.30;38.20;;;;;;5052580;28;20122;-64
2020/12/22 02:49:08;;;;;;;35.05;11.05;;;16.30;37.80;;;;;;5033982;28;20435;-65
2020/12/22 02:51:34;;;;;;;;;;;16.20;38.40;;;;;;5034874;28;20095;-63
2020/12/22 02:54:01;;;;;;;49.75;10.98;;;16.20;38.10;;;;;;5034720;28;19960;-63
2020/12/22 02:56:30;;;;;;;48.78;11.55;;;16.10;38.30;;;;;;5049945;28;20072;-64
2020/12/22 02:58:58;;;;;;;58.67;11.52;;;16.10;38.40;;;;;;5051680;28;20092;-64
2020/12/22 03:01:25;;;;;;;44.03;11.55;;;16.00;38.10;;;;;;5032513;28;20605;-63
2020/12/22 03:03:51;;;;;;;49.78;11.93;;;15.90;38.60;;;;;;5064582;28;20082;-63
2020/12/22 03:06:17;;;;;;;;;;;15.90;38.70;;;;;;5051103;28;20088;-65
2020/12/22 03:08:44;;;;;;;51.35;11.40;;;15.80;39.10;;;;;;5032410;28;20098;-64
2020/12/22 03:11:10;;;;;;;;;;;15.80;38.90;;;;;;5033370;28;20477;-64
2020/12/22 03:13:37;;;;;;;46.88;13.95;;;15.70;38.90;;;;;;5065619;28;19983;-64
2020/12/22 03:16:03;;;;;;;;;;;15.60;39.00;;;;;;5052014;28;20092;-64
2020/12/22 03:18:29;;;;;;;52.88;16.92;;;15.60;39.70;;;;;;5052322;28;20002;-64
2020/12/22 03:20:55;;;;;;;;;;;15.50;40.20;;;;;;5033828;28;20115;-63
2020/12/22 03:23:22;;;;;;;43.22;11.65;;;15.50;40.50;;;;;;5052762;28;20451;-64
2020/12/22 03:25:48;;;;;;;40.85;12.40;;;15.50;40.10;;;;;;5051768;28;20138;-65
2020/12/22 03:28:14;;;;;;;;;;;15.40;40.90;;;;;;5058365;28;20111;-64
2020/12/22 03:30:41;;;;;;;47.45;15.13;;;15.40;39.90;;;;;;5069409;28;20536;-62
2020/12/22 03:33:07;;;;;;;;;;;15.30;39.80;;;;;;5068569;28;20183;-62
2020/12/22 03:35:33;;;;;;;88.43;25.17;;;15.30;40.10;;;;;;5071206;28;19964;-65
2020/12/22 03:38:00;;;;;;;89.28;26.17;;;15.20;40.70;;;;;;5085632;28;20532;-62
2020/12/22 03:40:26;;;;;;;;;;;15.20;40.70;;;;;;5072249;28;20459;-63
2020/12/22 03:42:54;;;;;;;116.45;36.97;;;15.10;40.60;;;;;;5070233;28;20135;-64
2020/12/22 03:45:20;;;;;;;126.03;36.22;;;15.10;40.80;;;;;;5070066;28;20154;-62
2020/12/22 03:47:47;;;;;;;121.65;35.55;;;15.10;41.20;;;;;;5070219;28;20189;-63
2020/12/22 03:50:13;;;;;;;97.57;33.53;;;15.10;41.80;;;;;;5068537;28;20083;-63
2020/12/22 03:52:40;;;;;;;114.68;32.90;;;15.10;41.50;;;;;;5052792;28;20175;-62
2020/12/22 03:55:06;;;;;;;;;;;15.00;41.60;;;;;;5051933;28;20069;-62
2020/12/22 03:57:33;;;;;;;122.45;35.55;;;15.00;41.70;;;;;;5080541;28;19960;-63
2020/12/22 03:59:59;;;;;;;;;;;14.90;42.30;;;;;;5067349;28;20076;-63
2020/12/22 04:02:25;;;;;;;121.85;34.38;;;14.90;42.60;;;;;;5067506;28;19955;-63
2020/12/22 04:04:51;;;;;;;;;;;14.90;41.70;;;;;;5070148;28;20079;-61
2020/12/22 04:07:20;;;;;;;128.07;36.38;;;14.80;41.20;;;;;;5071013;28;19963;-60
2020/12/22 04:09:47;;;;;;;120.22;34.10;;;14.80;41.60;;;;;;5069045;28;20078;-61
2020/12/22 04:12:13;;;;;;;123.18;33.50;;;14.70;41.80;;;;;;5069022;28;20486;-63
2020/12/22 04:14:39;;;;;;;;;;;14.70;41.80;;;;;;5070035;28;20536;-66
2020/12/22 04:17:06;;;;;;;113.82;33.50;;;14.70;42.10;;;;;;5069299;28;19963;-64
2020/12/22 04:19:32;;;;;;;115.75;33.20;;;14.60;42.10;;;;;;5070127;28;20103;-65
2020/12/22 04:21:59;;;;;;;125.45;32.45;;;14.50;42.40;;;;;;5054219;28;20072;-63
2020/12/22 04:24:26;;;;;;;110.70;30.83;;;14.60;43.10;;;;;;5055219;28;20080;-63
2020/12/22 04:26:52;;;;;;;123.57;34.58;;;14.60;43.00;;;;;;5057530;28;20107;-63
2020/12/22 04:29:18;;;;;;;;;;;14.50;43.40;;;;;;5072092;28;20463;-65
2020/12/22 04:31:45;;;;;;;113.97;32.40;;;14.50;43.30;;;;;;5072420;28;19983;-63
2020/12/22 04:34:11;;;;;;;;;;;14.50;43.50;;;;;;5070414;28;20079;-64
2020/12/22 04:36:38;;;;;;;117.70;33.28;;;14.40;43.20;;;;;;5070238;28;20043;-63
2020/12/22 04:39:04;;;;;;;;;;;14.40;43.30;;;;;;5071376;28;20531;-62
2020/12/22 04:41:31;;;;;;;107.78;32.38;;;14.30;43.70;;;;;;5068481;28;20051;-63
2020/12/22 04:43:59;;;;;;;114.78;30.83;;;14.20;43.90;;;;;;5071138;28;20126;-64
2020/12/22 04:46:27;;;;;;;104.40;31.15;;;14.10;43.90;;;;;;5068298;28;20092;-65
2020/12/22 04:48:56;;;;;;;105.25;30.90;;;14.10;44.00;;;;;;5069553;28;20514;-66
2020/12/22 04:51:24;;;;;;;121.15;33.67;;;14.20;44.30;;;;;;5069798;28;20080;-64
2020/12/22 04:53:50;;;;;;;133.30;34.30;;;14.10;44.60;;;;;;5067990;28;20552;-65
2020/12/22 04:56:19;;;;;;;128.18;31.45;;;14.10;44.90;;;;;;5070547;28;20155;-65
2020/12/22 04:58:46;;;;;;;107.38;32.67;;;14.10;45.30;;;;;;5069040;28;20125;-66
2020/12/22 05:01:15;;;;;;;117.65;31.75;;;14.10;45.60;;;;;;5048903;28;20079;-66
2020/12/22 05:03:43;;;;;;;121.57;33.10;;;14.00;45.20;;;;;;5070769;28;20068;-66
2020/12/22 05:06:09;;;;;;;106.43;32.13;;;14.00;44.70;;;;;;5062007;28;20072;-64
2020/12/22 05:08:36;;;;;;;109.88;32.75;;;14.00;45.20;;;;;;5066363;28;21526;-65
2020/12/22 05:11:02;;;;;;;120.43;32.38;;;13.90;45.30;;;;;;5044982;28;20079;-66
2020/12/22 05:13:28;;;;;;;;;;;13.90;45.50;;;;;;5060847;28;20544;-64
2020/12/22 05:15:55;;;;;;;149.95;35.00;;;13.80;45.50;;;;;;5065648;28;20050;-64
2020/12/22 05:18:23;;;;;;;142.82;36.85;;;13.80;45.70;;;;;;5068346;28;20083;-64
2020/12/22 05:20:51;;;;;;;134.35;36.88;;;13.70;45.70;;;;;;5052718;28;20524;-63
2020/12/22 05:23:19;;;;;;;155.10;40.33;;;13.70;45.50;;;;;;5067826;28;20118;-63
2020/12/22 05:25:51;;;;;;;151.80;41.00;;;13.70;45.50;;;;;;5065928;28;20080;-64
2020/12/22 05:28:22;;;;;;;152.13;40.83;;;13.70;46.40;;;;;;5066601;28;20108;-64
2020/12/22 05:30:50;;;;;;;160.68;42.42;;;13.60;46.50;;;;;;5053219;28;20133;-64
2020/12/22 05:33:18;;;;;;;155.93;45.42;;;13.50;46.50;;;;;;5057009;28;20092;-64
2020/12/22 05:35:49;;;;;;;183.80;51.47;;;13.50;46.80;;;;;;5061273;28;20434;-65
2020/12/22 05:38:18;;;;;;;157.18;51.38;;;13.50;46.80;;;;;;5047567;28;20068;-64
2020/12/22 05:40:45;;;;;;;169.63;52.92;;;13.50;46.80;;;;;;5069797;28;20074;-64
2020/12/22 05:43:12;;;;;;;205.77;58.25;;;13.40;46.80;;;;;;5063113;28;20168;-63
2020/12/22 05:45:41;;;;;;;205.27;62.83;;;13.40;47.10;;;;;;5064854;28;20069;-64
2020/12/22 05:48:15;;;;;;;226.05;67.70;;;13.40;47.40;;;;;;5065784;28;20084;-65
2020/12/22 05:50:48;;;;;;;215.82;64.13;;;13.50;47.50;;;;;;5062350;28;20122;-64
2020/12/22 05:53:15;;;;;;;239.48;70.65;;;13.40;47.60;;;;;;5062060;28;20300;-63
2020/12/22 05:55:42;;;;;;;261.98;74.60;;;13.40;47.60;;;;;;5057286;28;20147;-64
2020/12/22 05:58:11;;;;;;;;;;;13.40;47.80;;;;;;5069839;28;20098;-63
2020/12/22 06:00:40;;;;;;;244.40;74.20;;;13.40;47.70;;;;;;5070421;28;19964;-64
2020/12/22 06:03:16;;;;;;;213.02;70.68;;;13.30;47.90;;;;;;5068759;28;20077;-64
2020/12/22 06:05:45;;;;;;;258.73;82.45;;;13.30;48.10;;;;;;5068985;28;20071;-64
2020/12/22 06:08:13;;;;;;;279.92;84.10;;;13.30;47.80;;;;;;5064923;28;20076;-64
2020/12/22 06:10:42;;;;;;;274.27;88.40;;;13.20;48.20;;;;;;5061712;28;20079;-64
2020/12/22 06:13:11;;;;;;;262.58;87.60;;;13.20;48.60;;;;;;5070814;28;20121;-64
2020/12/22 06:15:39;;;;;;;257.88;84.88;;;13.20;48.00;;;;;;5051063;28;20075;-64
2020/12/22 06:18:06;;;;;;;267.15;84.97;;;13.20;48.70;;;;;;5070290;28;20217;-65
2020/12/22 06:20:33;;;;;;;268.77;87.75;;;13.10;48.50;;;;;;5066829;28;20156;-63
2020/12/22 06:23:08;;;;;;;247.60;87.97;;;13.10;48.50;;;;;;5069466;28;20176;-64
2020/12/22 06:25:35;;;;;;;267.38;84.93;;;13.10;48.40;;;;;;5069788;28;20365;-63
2020/12/22 06:28:02;;;;;;;237.77;81.03;;;13.10;48.90;;;;;;5055577;28;20119;-65
2020/12/22 06:30:41;;;;;;;257.10;82.93;;;13.00;48.50;;;;;;5045195;28;20438;-64
2020/12/22 06:33:24;;;;;;;253.20;77.85;;;13.00;48.20;;;;;;5038600;28;20144;-64
2020/12/22 06:36:20;;;;;;;230.20;76.63;;;13.00;48.20;;;;;;5044253;28;20159;-65
2020/12/22 06:39:03;;;;;;;226.68;70.38;;;13.00;48.40;;;;;;5038868;28;20093;-64
2020/12/22 06:41:35;;;;;;;219.18;66.97;;;12.90;48.10;;;;;;5053254;28;20122;-64
2020/12/22 06:44:17;;;;;;;226.68;69.07;;;12.90;48.10;;;;;;5060804;28;20176;-64
2020/12/22 06:46:46;;;;;;;209.55;65.10;;;12.90;48.30;;;;;;5053080;28;20090;-64
2020/12/22 06:49:13;;;;;;;204.77;63.17;;;12.90;48.40;;;;;;5047257;28;20072;-65
2020/12/22 06:51:42;;;;;;;228.18;69.68;;;12.80;48.40;;;;;;5046998;28;20551;-64
2020/12/22 06:54:14;;;;;;;236.10;66.32;;;12.80;48.40;;;;;;5047249;28;20083;-65
2020/12/22 06:56:50;;;;;;;228.75;68.65;;;12.70;48.50;;;;;;5056955;28;20076;-66
2020/12/22 06:59:37;;;;;;;214.20;63.58;;;12.70;48.90;;;;;;5050167;28;20073;-64
2020/12/22 07:02:04;;;;;;;;;;;12.80;49.10;;;;;;5052705;28;20069;-66
2020/12/22 07:04:39;;;;;;;216.85;63.95;;;12.70;49.20;;;;;;5049597;28;19955;-65
2020/12/22 07:07:06;;;;;;;196.23;61.58;;;12.60;49.20;;;;;;5039419;28;20080;-65
2020/12/22 07:09:39;;;;;;;217.50;63.25;;;12.60;49.20;;;;;;5055683;28;20060;-64
2020/12/22 07:12:11;;;;;;;233.60;63.42;;;12.60;49.40;;;;;;5052626;28;20084;-63
2020/12/22 07:14:39;;;;;;;197.93;61.00;;;12.60;49.20;;;;;;5046266;28;20164;-63
2020/12/22 07:17:07;;;;;;;193.32;60.90;;;12.60;49.30;;;;;;5053519;28;20150;-64
2020/12/22 07:19:35;;;;;;;203.10;60.90;;;12.50;49.60;;;;;;5050664;28;20572;-64
2020/12/22 07:22:07;;;;;;;211.30;60.58;;;12.50;49.70;;;;;;5051203;28;20076;-64
2020/12/22 07:24:36;;;;;;;214.85;61.53;;;12.40;49.40;;;;;;5030384;28;20155;-66
2020/12/22 07:27:03;;;;;;;215.02;60.70;;;12.40;49.70;;;;;;5057481;28;20121;-63
2020/12/22 07:29:29;;;;;;;199.88;59.67;;;12.40;49.90;;;;;;5063074;28;20613;-64
2020/12/22 07:32:00;;;;;;;210.85;60.05;;;12.40;50.00;;;;;;5053401;28;20139;-64
2020/12/22 07:34:27;;;;;;;198.00;59.25;;;12.30;50.20;;;;;;5075672;28;20081;-64
2020/12/22 07:37:02;;;;;;;;;;;12.30;50.00;;;;;;5078487;28;20104;-64
2020/12/22 07:39:31;;;;;;;226.45;60.33;;;12.30;50.60;;;;;;5072046;28;19964;-60
2020/12/22 07:42:07;;;;;;;225.75;61.75;;;12.30;51.10;;;;;;5068166;28;20119;-65
2020/12/22 07:44:34;;;;;;;200.20;59.72;;;12.20;50.90;;;;;;5076901;28;20070;-64
2020/12/22 07:47:01;;;;;;;199.40;59.50;;;12.20;50.70;;;;;;5058391;28;20088;-64
2020/12/22 07:49:27;;;;;;;;;;;12.20;51.30;;;;;;5070347;28;20064;-64
2020/12/22 07:51:53;;;;;;;233.80;59.85;;;12.20;51.50;;;;;;5069215;28;20011;-63
2020/12/22 07:54:20;;;;;;;207.48;61.90;;;12.10;51.60;;;;;;5071578;28;20393;-64
2020/12/22 07:56:47;;;;;;;186.43;58.08;;;12.10;51.40;;;;;;5055401;28;20073;-64
2020/12/22 07:59:15;;;;;;;201.23;61.38;;;12.10;51.70;;;;;;5052289;28;20131;-64
2020/12/22 08:01:47;;;;;;;221.80;63.22;;;12.00;51.70;;;;;;5070097;28;20077;-63
2020/12/22 08:04:34;;;;;;;215.52;61.10;;;12.00;51.60;;;;;;5069265;28;20068;-64
2020/12/22 08:07:02;;;;;;;210.20;63.80;;;12.00;51.90;;;;;;5071214;28;20082;-65
2020/12/22 08:09:36;;;;;;;209.55;59.47;;;12.00;52.80;;;;;;5053236;28;20093;-65
2020/12/22 08:12:05;;;;;;;221.15;62.47;;;11.90;52.40;;;;;;5071674;28;20096;-64
2020/12/22 08:14:38;;;;;;;202.57;63.38;;;11.80;52.40;;;;;;5068050;28;20088;-65
2020/12/22 08:17:18;;;;;;;209.43;63.47;;;11.80;52.70;;;;;;5054098;28;20127;-65
2020/12/22 08:19:46;;;;;;;234.65;65.20;;;11.70;52.70;;;;;;5070013;28;20099;-64
2020/12/22 08:22:17;;;;;;;231.88;61.28;;;11.70;53.10;;;;;;5049750;28;20080;-65
2020/12/22 08:24:44;;;;;;;215.20;62.55;;;11.70;52.80;;;;;;5070365;28;20163;-65
2020/12/22 08:27:12;;;;;;;230.07;64.97;;;11.70;52.60;;;;;;5069036;28;20088;-64
2020/12/22 08:29:42;;;;;;;236.27;63.65;;;11.70;52.70;;;;;;5070193;28;20200;-64
2020/12/22 08:32:08;;;;;;;221.75;62.58;;;11.60;52.50;;;;;;5068962;28;20088;-64
2020/12/22 08:34:35;;;;;;;238.85;64.75;;;11.60;52.10;;;;;;5070359;28;20074;-64
2020/12/22 08:37:11;;;;;;;243.10;65.90;;;11.60;51.90;;;;;;5069885;28;21448;-64
2020/12/22 08:39:43;;;;;;;210.80;64.17;;;11.60;51.80;;;;;;5069266;28;20080;-64
2020/12/22 08:42:11;;;;;;;241.20;65.80;;;11.60;52.30;;;;;;5069182;28;20156;-64
2020/12/22 08:44:47;;;;;;;244.57;68.10;;;11.60;52.40;;;;;;5069625;28;20123;-64
2020/12/22 08:47:14;;;;;;;239.05;67.85;;;11.60;51.60;;;;;;5043254;28;20125;-64
2020/12/22 08:49:41;;;;;;;257.38;71.20;;;11.50;52.10;;;;;;5069366;28;20077;-64
2020/12/22 08:52:10;;;;;;;;;;;11.40;52.10;;;;;;5060155;28;20124;-64
2020/12/22 08:54:36;;;;;;;247.15;71.90;;;11.40;51.70;;;;;;5068810;28;19983;-64
2020/12/22 08:57:15;;;;;;;230.88;72.55;;;11.30;51.50;;;;;;5067702;28;20073;-63
2020/12/22 08:59:42;;;;;;;237.60;70.25;;;11.30;51.70;;;;;;5069593;28;20105;-64
2020/12/22 09:02:29;;;;;;;228.63;72.28;;;11.30;51.50;;;;;;5053540;28;20075;-64
2020/12/22 09:04:57;;;;;;;251.40;71.78;;;11.30;51.10;;;;;;5064113;28;21336;-64
2020/12/22 09:07:25;;;;;;;254.18;71.47;;;11.30;51.80;;;;;;5074910;28;20073;-64
2020/12/22 09:10:04;;;;;;;256.42;73.60;;;11.20;51.90;;;;;;5050003;28;20124;-64
2020/12/22 09:12:31;;;;;;;263.05;75.85;;;11.20;52.30;;;;;;5059788;28;20585;-64
2020/12/22 09:15:01;;;;;;;304.95;81.18;;;11.10;52.10;;;;;;5066111;28;20061;-65
2020/12/22 09:17:29;;;;;;;265.83;78.65;;;11.10;51.80;;;;;;5050657;28;20073;-64
2020/12/22 09:19:56;;;;;;;285.45;77.13;;;11.10;51.90;;;;;;5069556;28;20536;-64
2020/12/22 09:22:28;;;;;;;267.00;79.13;;;11.10;52.00;;;;;;5052293;28;20077;-64
2020/12/22 09:24:56;;;;;;;265.02;77.80;;;11.10;51.60;;;;;;5068717;28;20083;-64
2020/12/22 09:27:29;;;;;;;246.48;75.57;;;11.10;51.60;;;;;;5068713;28;20421;-64
2020/12/22 09:29:56;;;;;;;272.98;78.75;;;11.10;52.40;;;;;;5050884;28;20160;-64
2020/12/22 09:32:23;;;;;;;280.65;80.25;;;10.90;52.20;;;;;;5050179;28;20180;-64
2020/12/22 09:34:50;;;;;;;289.00;79.38;;;10.90;52.60;;;;;;5049455;28;20066;-64
2020/12/22 09:37:17;;;;;;;259.45;77.32;;;10.90;52.40;;;;;;5049535;28;20131;-64
2020/12/22 09:39:45;;;;;;;261.27;79.18;;;11.00;52.40;;;;;;5050036;28;20073;-65
2020/12/22 09:42:12;;;;;;;264.95;85.32;;;10.90;52.40;;;;;;5031434;28;20077;-65
2020/12/22 09:44:38;;;;;;;281.20;85.82;;;10.80;52.20;;;;;;5048398;28;20074;-63
2020/12/22 09:47:05;;;;;;;276.77;86.00;;;10.80;52.20;;;;;;5050010;28;20395;-64
2020/12/22 09:49:31;;;;;;;;;;;10.80;52.00;;;;;;5049785;28;20358;-64
2020/12/22 09:51:57;;;;;;;280.48;87.70;;;10.80;52.10;;;;;;5049776;28;19976;-64
2020/12/22 09:54:24;;;;;;;;;;;10.80;52.20;;;;;;5064948;28;20073;-64
2020/12/22 09:56:50;;;;;;;287.60;92.05;;;10.80;52.00;;;;;;5048659;28;19971;-65
2020/12/22 09:59:18;;;;;;;272.42;89.47;;;10.80;52.60;;;;;;5049530;28;21510;-64
2020/12/22 10:01:46;;;;;;;300.00;92.20;;;10.80;53.20;;;;;;5047639;28;20073;-65
2020/12/22 10:04:13;;;;;;;299.50;91.50;;;10.70;52.70;;;;;;5050199;28;20104;-65
2020/12/22 10:06:39;;;;;;;283.90;88.55;;;10.70;53.00;;;;;;5049192;28;20074;-63
2020/12/22 10:09:06;;;;;;;;;;;10.70;53.10;;;;;;5049576;28;20101;-64
2020/12/22 10:11:34;;;;;;;260.30;84.93;;;10.70;53.30;;;;;;5051195;28;19961;-62
2020/12/22 10:14:02;;;;;;;284.38;89.18;;;10.70;53.10;;;;;;5049098;28;20082;-63
2020/12/22 10:16:28;;;;;;;277.17;88.47;;;10.70;53.70;;;;;;5051196;28;20545;-63
2020/12/22 10:18:54;;;;;;;;;;;10.60;54.10;;;;;;5050145;28;20081;-63
2020/12/22 10:21:24;;;;;;;270.80;89.47;;;10.60;54.10;;;;;;5065055;28;20405;-65
2020/12/22 10:23:52;;;;;;;293.00;90.20;;;10.60;53.50;;;;;;5030281;28;20077;-65
2020/12/22 10:26:20;;;;;;;293.50;94.20;;;10.60;54.10;;;;;;5031077;28;20108;-64
2020/12/22 10:28:48;;;;;;;281.33;94.35;;;10.50;53.60;;;;;;5061365;28;20572;-65
2020/12/22 10:31:22;;;;;;;277.10;93.45;;;10.50;53.60;;;;;;5069728;28;20105;-65
2020/12/22 10:33:48;;;;;;;291.00;97.22;;;10.50;53.80;;;;;;5082797;28;20089;-65
2020/12/22 10:36:16;;;;;;;;;;;10.50;54.40;;;;;;5052743;28;20072;-64
2020/12/22 10:38:42;;;;;;;277.30;97.55;;;10.40;53.80;;;;;;5049470;28;20074;-65
2020/12/22 10:41:09;;;;;;;;;;;10.40;54.20;;;;;;5053132;28;20117;-63
2020/12/22 10:43:35;;;;;;;275.00;94.97;;;10.30;54.50;;;;;;5069803;28;19957;-65
2020/12/22 10:46:03;;;;;;;287.73;95.55;;;10.30;54.70;;;;;;5051026;28;20152;-63
2020/12/22 10:48:30;;;;;;;277.02;92.88;;;10.40;54.70;;;;;;5056804;28;20073;-65
2020/12/22 10:50:57;;;;;;;286.33;92.57;;;10.40;54.90;;;;;;5074058;28;20073;-64
2020/12/22 10:53:24;;;;;;;284.98;94.07;;;10.30;54.90;;;;;;5073153;28;20093;-62
2020/12/22 10:55:52;;;;;;;281.73;93.38;;;10.40;55.10;;;;;;5073853;28;20077;-63
2020/12/22 10:58:19;;;;;;;287.83;95.13;;;10.30;55.00;;;;;;5056546;28;20081;-64
2020/12/22 11:00:47;;;;;;;333.63;91.90;;;10.40;55.20;;;;;;5056718;28;20103;-64
2020/12/22 11:03:18;;;;;;;302.95;92.05;;;10.40;54.70;;;;;;5072262;28;20163;-64
2020/12/22 11:06:04;;;;;;;281.75;90.82;;;10.30;54.70;;;;;;5074731;28;20119;-64
2020/12/22 11:08:31;;;;;;;296.10;90.87;;;10.40;53.80;;;;;;5074593;28;20577;-65
2020/12/22 11:10:58;;;;;;;;;;;10.40;53.90;;;;;;5074643;28;20351;-65
2020/12/22 11:13:24;;;;;;;302.23;94.63;;;10.40;53.90;;;;;;5089093;28;19981;-64
2020/12/22 11:15:51;;;;;;;315.90;99.25;;;10.40;53.50;;;;;;5055928;28;20425;-64
2020/12/22 11:18:18;;;;;;;;;;;10.40;53.70;;;;;;5073193;28;20095;-64
2020/12/22 11:20:44;;;;;;;316.23;96.93;;;10.30;53.70;;;;;;5073090;28;19956;-64
2020/12/22 11:23:11;;;;;;;;;;;10.20;53.60;;;;;;5071647;28;20081;-63
2020/12/22 11:25:37;;;;;;;308.13;96.43;;;10.20;54.20;;;;;;5072283;28;19956;-65
2020/12/22 11:28:04;;;;;;;315.73;102.13;;;10.20;54.60;;;;;;5072585;28;20128;-66
2020/12/22 11:30:31;;;;;;;329.65;103.20;;;10.30;54.90;;;;;;5055411;28;20077;-63
2020/12/22 11:32:57;;;;;;;;;;;10.30;54.40;;;;;;5055712;28;20572;-64
2020/12/22 11:35:24;;;;;;;326.15;100.40;;;10.30;54.10;;;;;;5054315;28;19979;-63
2020/12/22 11:37:50;;;;;;;;;;;10.30;53.80;;;;;;5073157;28;20095;-61
2020/12/22 11:40:16;;;;;;;323.35;99.18;;;10.30;54.10;;;;;;5072469;28;19957;-63
2020/12/22 11:42:43;;;;;;;314.45;101.68;;;10.30;54.20;;;;;;5072163;28;20095;-64
2020/12/22 11:45:09;;;;;;;;;;;10.30;54.00;;;;;;5072356;28;20137;-63
2020/12/22 11:47:36;;;;;;;315.48;100.72;;;10.40;53.40;;;;;;5071221;28;20016;-63
2020/12/22 11:50:03;;;;;;;314.60;102.78;;;10.40;53.60;;;;;;5072785;28;20152;-63
2020/12/22 11:52:30;;;;;;;321.70;100.72;;;10.40;53.50;;;;;;5071629;28;20464;-63
2020/12/22 11:54:56;;;;;;;338.08;105.18;;;10.50;53.40;;;;;;5072018;28;20073;-63
2020/12/22 11:57:23;;;;;;;330.02;103.80;;;10.50;53.00;;;;;;5070588;28;20133;-64
2020/12/22 11:59:49;;;;;;;348.65;105.88;;;10.50;52.40;;;;;;5054204;28;20085;-65
2020/12/22 12:02:15;;;;;;;;;;;10.50;52.50;;;;;;5072396;28;20073;-64
2020/12/22 12:04:42;;;;;;;328.80;103.97;;;10.50;52.20;;;;;;5071749;28;19967;-64
2020/12/22 12:07:11;;;;;;;329.35;109.68;;;10.50;52.20;;;;;;5053149;28;20080;-65
2020/12/22 12:09:37;;;;;;;340.45;108.78;;;10.50;52.00;;;;;;5070915;28;20077;-64
2020/12/22 12:12:04;;;;;;;341.58;109.97;;;10.50;51.30;;;;;;5071191;28;20641;-60
2020/12/22 12:14:30;;;;;;;361.55;110.28;;;10.50;50.70;;;;;;5071920;28;20088;-64
2020/12/22 12:16:56;;;;;;;334.40;113.93;;;10.60;51.20;;;;;;5070488;28;20065;-63
2020/12/22 12:19:23;;;;;;;;;;;10.60;51.20;;;;;;5071405;28;20076;-63
2020/12/22 12:21:49;;;;;;;316.77;108.53;;;10.60;50.30;;;;;;5071603;28;19971;-64
2020/12/22 12:24:16;;;;;;;354.50;115.78;;;10.60;50.00;;;;;;5071503;28;20077;-64
2020/12/22 12:26:42;;;;;;;;;;;10.60;50.00;;;;;;5072776;28;20139;-64
2020/12/22 12:29:09;;;;;;;325.48;108.82;;;10.60;50.10;;;;;;5071898;28;20030;-64
2020/12/22 12:31:35;;;;;;;342.10;111.93;;;10.60;50.20;;;;;;5070704;28;20069;-64
2020/12/22 12:34:02;;;;;;;;;;;10.50;51.00;;;;;;5071910;28;20498;-64
2020/12/22 12:36:29;;;;;;;333.95;111.10;;;10.60;50.40;;;;;;5054021;28;19957;-64
2020/12/22 12:38:56;;;;;;;324.23;113.43;;;10.60;51.10;;;;;;5072244;28;20076;-64
2020/12/22 12:41:22;;;;;;;;;;;10.50;50.10;;;;;;5071140;28;20130;-64
2020/12/22 12:43:48;;;;;;;325.42;109.10;;;10.60;49.80;;;;;;5072083;28;20025;-64